createdAt,value
2022-10-01T00:01:12.465Z,45.40
2022-10-01T00:06:21.686Z,42.50
2022-10-01T00:11:30.221Z,50.17
2022-10-01T00:16:38.164Z,43.23
2022-10-01T00:21:46.288Z,40.47
2022-10-01T00:26:54.202Z,38.60
2022-10-01T00:32:02.319Z,45.10
2022-10-01T00:37:10.809Z,38.83
2022-10-01T00:42:22.269Z,35.33
2022-10-01T00:47:33.570Z,36.77
2022-10-01T00:52:42.003Z,42.23
2022-10-01T00:57:50.331Z,41.87
2022-10-01T01:02:58.245Z,35.50
2022-10-01T01:08:06.068Z,37.57
2022-10-01T01:13:17.027Z,40.50
2022-10-01T01:18:28.510Z,39.53
2022-10-01T01:23:41.632Z,41.23
2022-10-01T01:28:51.034Z,37.33
2022-10-01T01:33:58.950Z,33.30
2022-10-01T01:39:07.473Z,35.50
2022-10-01T01:44:16.955Z,39.03
2022-10-01T01:49:24.846Z,32.87
2022-10-01T01:54:33.843Z,35.90
2022-10-01T01:59:42.400Z,35.60
2022-10-01T02:04:54.895Z,41.03
2022-10-01T02:10:06.341Z,37.03
2022-10-01T02:15:18.395Z,39.57
2022-10-01T02:25:44.773Z,36.50
2022-10-01T02:30:54.157Z,49.33
2022-10-01T02:36:02.280Z,41.10
2022-10-01T02:41:11.818Z,41.93
2022-10-01T02:46:22.553Z,50.53
2022-10-01T02:51:35.482Z,43.93
2022-10-01T02:56:48.847Z,44.80
2022-10-01T03:01:55.006Z,47.23
2022-10-01T03:07:04.128Z,55.10
2022-10-01T03:12:13.000Z,52.23
2022-10-01T03:17:21.053Z,44.50
2022-10-01T03:22:28.977Z,57.30
2022-10-01T03:27:36.873Z,50.43
2022-10-01T03:32:44.653Z,56.03
2022-10-01T03:37:53.231Z,46.83
2022-10-01T03:43:05.925Z,54.93
2022-10-01T03:48:14.080Z,47.50
2022-10-01T03:53:22.284Z,49.00
2022-10-01T03:58:30.139Z,40.33
2022-10-01T04:03:38.407Z,34.30
2022-10-01T04:08:47.030Z,32.77
2022-10-01T04:13:55.583Z,36.03
2022-10-01T04:19:04.701Z,50.40
2022-10-01T04:24:12.624Z,44.60
2022-10-01T04:29:20.668Z,37.80
2022-10-01T04:34:30.317Z,40.40
2022-10-01T04:39:38.728Z,36.70
2022-10-01T04:44:46.511Z,32.07
2022-10-01T04:49:55.542Z,44.63
2022-10-01T04:55:04.281Z,33.00
2022-10-01T05:00:14.688Z,46.07
2022-10-01T05:05:26.747Z,59.00
2022-10-01T05:10:35.763Z,54.87
2022-10-01T05:15:44.701Z,42.67
2022-10-01T05:20:52.503Z,45.47
2022-10-01T05:26:01.118Z,61.80
2022-10-01T05:31:09.501Z,52.23
2022-10-01T05:36:17.341Z,57.73
2022-10-01T05:41:25.115Z,44.47
2022-10-01T05:46:33.059Z,44.67
2022-10-01T05:51:41.007Z,48.23
2022-10-01T05:56:48.896Z,41.37
2022-10-01T06:01:56.852Z,36.77
2022-10-01T06:07:04.844Z,43.47
2022-10-01T06:12:17.661Z,39.67
2022-10-01T06:17:23.066Z,36.17
2022-10-01T06:22:33.459Z,41.97
2022-10-01T06:27:42.182Z,40.90
2022-10-01T06:32:50.602Z,52.43
2022-10-01T06:37:58.723Z,41.63
2022-10-01T06:43:08.433Z,40.63
2022-10-01T06:48:17.848Z,44.10
2022-10-01T06:53:25.767Z,41.27
2022-10-01T06:58:33.813Z,37.70
2022-10-01T07:03:41.871Z,36.33
2022-10-01T07:08:51.570Z,38.43
2022-10-01T07:14:01.228Z,42.57
2022-10-01T07:19:09.341Z,35.07
2022-10-01T07:24:17.327Z,43.30
2022-10-01T07:29:26.328Z,39.00
2022-10-01T07:34:34.217Z,34.33
2022-10-01T07:39:42.475Z,37.13
2022-10-01T07:44:50.526Z,25.70
2022-10-01T07:49:58.460Z,25.17
2022-10-01T07:55:08.482Z,22.23
2022-10-01T08:00:16.468Z,22.80
2022-10-01T08:05:26.306Z,18.80
2022-10-01T08:10:36.273Z,17.97
2022-10-01T08:15:45.354Z,17.37
2022-10-01T08:20:53.496Z,17.87
2022-10-01T08:26:04.443Z,15.90
2022-10-01T08:31:12.379Z,16.93
2022-10-01T08:36:21.707Z,18.80
2022-10-01T08:41:33.571Z,13.93
2022-10-01T08:46:43.330Z,16.93
2022-10-01T08:51:54.243Z,13.30
2022-10-01T08:57:04.955Z,13.70
2022-10-01T09:02:16.146Z,19.00
2022-10-01T09:07:27.147Z,13.70
2022-10-01T09:12:40.534Z,12.93
2022-10-01T09:17:51.520Z,14.67
2022-10-01T09:23:03.242Z,14.20
2022-10-01T09:28:14.565Z,14.13
2022-10-01T09:33:24.836Z,11.20
2022-10-01T09:38:37.300Z,13.60
2022-10-01T09:43:45.558Z,11.03
2022-10-01T09:48:57.980Z,11.27
2022-10-01T09:59:22.732Z,11.17
2022-10-01T10:04:31.877Z,15.50
2022-10-01T10:09:40.671Z,13.57
2022-10-01T10:14:49.321Z,10.30
2022-10-01T10:19:58.137Z,13.97
2022-10-01T10:25:09.737Z,12.03
2022-10-01T10:30:18.454Z,12.00
2022-10-01T10:35:27.534Z,10.47
2022-10-01T10:40:39.373Z,10.63
2022-10-01T10:45:47.437Z,10.37
2022-10-01T10:50:58.687Z,9.47
2022-10-01T10:56:07.506Z,8.87
2022-10-01T11:01:18.306Z,8.20
2022-10-01T11:06:32.687Z,11.70
2022-10-01T11:11:44.508Z,8.63
2022-10-01T11:16:55.583Z,6.83
2022-10-01T11:22:08.068Z,5.07
2022-10-01T11:27:20.475Z,5.37
2022-10-01T11:32:34.554Z,3.77
2022-10-01T11:37:47.866Z,3.47
2022-10-01T11:42:58.856Z,4.97
2022-10-01T11:48:10.668Z,7.87
2022-10-01T11:53:22.066Z,8.53
2022-10-01T11:58:34.698Z,7.80
2022-10-01T12:03:45.704Z,17.07
2022-10-01T12:08:57.340Z,7.93
2022-10-01T12:14:07.990Z,2.97
2022-10-01T12:19:19.117Z,2.73
2022-10-01T12:24:30.778Z,2.00
2022-10-01T12:29:42.197Z,2.13
2022-10-01T12:40:10.396Z,1.87
2022-10-01T12:45:21.516Z,2.90
2022-10-01T12:55:48.512Z,5.87
2022-10-01T13:06:14.723Z,2.27
2022-10-01T13:11:26.550Z,2.47
2022-10-01T13:16:39.144Z,3.83
2022-10-01T13:21:51.635Z,3.57
2022-10-01T13:27:05.078Z,3.10
2022-10-01T13:32:16.140Z,3.70
2022-10-01T13:37:28.188Z,1.70
2022-10-01T13:42:39.152Z,2.43
2022-10-01T13:47:48.304Z,1.73
2022-10-01T13:53:00.130Z,1.70
2022-10-01T13:58:10.553Z,1.40
2022-10-01T14:03:21.792Z,2.53
2022-10-01T14:08:32.680Z,3.87
2022-10-01T14:13:45.645Z,2.97
2022-10-01T14:18:57.936Z,3.95
2022-10-01T14:24:09.342Z,2.33
2022-10-01T14:29:20.543Z,3.37
2022-10-01T14:34:32.105Z,3.03
2022-10-01T14:39:40.588Z,3.30
2022-10-01T14:44:48.610Z,4.80
2022-10-01T14:49:56.589Z,5.80
2022-10-01T14:55:07.212Z,3.50
2022-10-01T15:00:19.353Z,4.63
2022-10-01T15:05:30.321Z,4.53
2022-10-01T15:10:40.733Z,5.17
2022-10-01T15:15:48.939Z,3.20
2022-10-01T15:20:59.785Z,3.60
2022-10-01T15:26:10.671Z,4.93
2022-10-01T15:31:21.240Z,4.33
2022-10-01T15:36:29.213Z,3.77
2022-10-01T15:41:39.345Z,1.83
2022-10-01T15:46:47.978Z,3.33
2022-10-01T15:52:00.110Z,1.43
2022-10-01T15:57:08.394Z,2.93
2022-10-01T16:02:19.793Z,2.23
2022-10-01T16:07:30.124Z,2.77
2022-10-01T16:12:38.970Z,3.83
2022-10-01T16:17:50.781Z,4.53
2022-10-01T16:23:01.840Z,7.57
2022-10-01T16:28:13.221Z,6.07
2022-10-01T16:33:21.606Z,7.60
2022-10-01T16:38:29.883Z,10.87
2022-10-01T16:43:38.729Z,10.00
2022-10-01T16:48:48.375Z,11.97
2022-10-01T16:53:57.232Z,14.13
2022-10-01T16:59:05.063Z,7.03
2022-10-01T17:04:14.631Z,6.70
2022-10-01T17:09:23.222Z,7.33
2022-10-01T17:14:31.281Z,9.50
2022-10-01T17:19:39.140Z,12.40
2022-10-01T17:24:47.123Z,21.17
2022-10-01T17:29:57.215Z,13.40
2022-10-01T17:35:05.778Z,9.40
2022-10-01T17:40:13.993Z,12.17
2022-10-01T17:45:22.038Z,14.53
2022-10-01T17:50:30.036Z,15.17
2022-10-01T17:55:41.244Z,15.20
2022-10-01T18:00:49.397Z,9.47
2022-10-01T18:06:01.560Z,7.57
2022-10-01T18:11:12.591Z,7.57
2022-10-01T18:16:20.638Z,8.40
2022-10-01T18:21:28.856Z,8.50
2022-10-01T18:26:37.289Z,9.30
2022-10-01T18:31:46.233Z,8.57
2022-10-01T18:36:59.569Z,14.00
2022-10-01T18:42:10.636Z,14.47
2022-10-01T18:47:22.713Z,12.27
2022-10-01T18:52:33.809Z,12.67
2022-10-01T18:57:45.624Z,9.20
2022-10-01T19:02:56.982Z,12.40
2022-10-01T19:08:08.144Z,11.90
2022-10-01T19:13:21.319Z,8.97
2022-10-01T19:18:34.134Z,8.80
2022-10-01T19:23:46.963Z,9.77
2022-10-01T19:34:14.268Z,7.63
2022-10-01T19:39:26.113Z,8.53
2022-10-01T19:44:37.845Z,12.03
2022-10-01T19:49:46.590Z,7.53
2022-10-01T19:54:59.563Z,9.07
2022-10-01T20:00:10.179Z,9.60
2022-10-01T20:05:21.313Z,7.73
2022-10-01T20:10:33.429Z,7.60
2022-10-01T20:15:44.586Z,9.70
2022-10-01T20:26:09.167Z,11.27
2022-10-01T20:31:21.018Z,16.60
2022-10-01T20:36:34.850Z,20.03
2022-10-01T20:41:45.550Z,13.43
2022-10-01T20:46:56.210Z,9.20
2022-10-01T20:52:09.717Z,9.63
2022-10-01T20:57:21.424Z,10.00
2022-10-01T21:02:32.501Z,9.20
2022-10-01T21:07:44.239Z,7.20
2022-10-01T21:12:56.219Z,24.07
2022-10-01T21:18:07.486Z,16.00
2022-10-01T21:23:19.900Z,11.10
2022-10-01T21:28:31.162Z,13.73
2022-10-01T21:33:42.097Z,23.03
2022-10-01T21:38:54.861Z,16.17
2022-10-01T21:44:10.843Z,10.23
2022-10-01T21:49:21.558Z,7.43
2022-10-01T21:54:34.597Z,7.17
2022-10-01T21:59:45.757Z,6.23
2022-10-01T22:04:56.689Z,6.53
2022-10-01T22:10:07.704Z,7.73
2022-10-01T22:15:18.879Z,9.03
2022-10-01T22:20:29.435Z,11.87
2022-10-01T22:25:39.947Z,8.80
2022-10-01T22:30:48.817Z,8.20
2022-10-01T22:36:00.723Z,8.43
2022-10-01T22:41:12.163Z,7.83
2022-10-01T22:46:23.465Z,5.27
2022-10-01T22:51:34.557Z,4.57
2022-10-01T22:56:45.588Z,7.70
2022-10-01T23:01:58.549Z,4.67
2022-10-01T23:07:09.572Z,4.50
2022-10-01T23:12:38.174Z,4.67
2022-10-01T23:17:49.289Z,3.57
2022-10-01T23:23:01.493Z,4.47
2022-10-01T23:28:13.677Z,6.40
2022-10-01T23:33:24.833Z,4.10
2022-10-01T23:43:48.773Z,3.03
2022-10-01T23:48:59.766Z,2.13
2022-10-01T23:54:10.813Z,2.93
